createdAt,value
2016-08-23T00:00:28.270Z,0
2016-08-23T00:01:41.259Z,0
2016-08-23T00:02:54.442Z,0
2016-08-23T00:04:07.425Z,0
2016-08-23T00:05:20.429Z,0
2016-08-23T00:06:33.445Z,0
2016-08-23T00:07:46.422Z,0
2016-08-23T00:08:59.604Z,0
2016-08-23T00:10:12.585Z,0
2016-08-23T00:11:25.573Z,0
2016-08-23T00:12:38.560Z,0
2016-08-23T00:13:51.679Z,0
2016-08-23T00:15:04.661Z,0
2016-08-23T00:16:17.650Z,0
2016-08-23T00:17:30.630Z,0
2016-08-23T00:18:43.610Z,0
2016-08-23T00:19:56.785Z,0
2016-08-23T00:21:09.782Z,0
2016-08-23T00:22:22.760Z,0
2016-08-23T00:23:35.742Z,0
2016-08-23T00:24:48.723Z,0
2016-08-23T00:26:01.706Z,0
2016-08-23T00:27:14.709Z,0
2016-08-23T00:28:27.694Z,0
2016-08-23T00:29:40.671Z,0
2016-08-23T00:30:53.640Z,0
2016-08-23T00:32:06.822Z,0
2016-08-23T00:33:19.810Z,0
2016-08-23T00:34:32.786Z,0
2016-08-23T00:35:45.771Z,0
2016-08-23T00:36:58.946Z,0
2016-08-23T00:38:11.928Z,0
2016-08-23T00:39:25.515Z,0
2016-08-23T00:40:38.498Z,0
2016-08-23T00:41:51.475Z,0
2016-08-23T00:43:04.450Z,0
2016-08-23T00:44:17.431Z,0
2016-08-23T00:45:30.418Z,0
2016-08-23T00:46:43.391Z,0
2016-08-23T00:47:56.370Z,0
2016-08-23T00:49:09.352Z,0
2016-08-23T00:50:22.332Z,0
2016-08-23T00:51:35.517Z,0
2016-08-23T00:52:48.503Z,0
2016-08-23T00:54:01.476Z,0
2016-08-23T00:55:14.456Z,0
2016-08-23T00:56:27.436Z,0
2016-08-23T00:57:40.414Z,0
2016-08-23T00:58:53.394Z,0
2016-08-23T01:00:06.372Z,0
2016-08-23T01:01:19.349Z,0
2016-08-23T01:02:32.340Z,0
2016-08-23T01:03:45.323Z,0
2016-08-23T01:04:58.513Z,0
2016-08-23T01:06:11.490Z,0
2016-08-23T01:07:24.475Z,0
2016-08-23T01:08:37.454Z,0
2016-08-23T01:09:50.424Z,0
2016-08-23T01:11:03.410Z,0
2016-08-23T01:12:16.383Z,0
2016-08-23T01:13:29.576Z,0
2016-08-23T01:14:42.600Z,0
2016-08-23T01:15:55.593Z,0
2016-08-23T01:17:08.575Z,0
2016-08-23T01:18:21.550Z,0
2016-08-23T01:19:34.543Z,0
2016-08-23T01:20:47.527Z,0
2016-08-23T01:22:00.501Z,0
2016-08-23T01:23:13.479Z,0
2016-08-23T01:24:26.499Z,0
2016-08-23T01:25:39.480Z,0
2016-08-23T01:26:52.661Z,0
2016-08-23T01:28:05.643Z,0
2016-08-23T01:29:18.620Z,0
2016-08-23T01:30:31.608Z,0
2016-08-23T01:31:44.789Z,0
2016-08-23T01:32:57.776Z,0
2016-08-23T01:34:10.764Z,0
2016-08-23T01:35:23.743Z,0
2016-08-23T01:36:36.736Z,0
2016-08-23T01:37:49.732Z,0
2016-08-23T01:39:02.716Z,0
2016-08-23T01:40:15.702Z,0
2016-08-23T01:41:28.685Z,0
2016-08-23T01:42:41.863Z,0
2016-08-23T01:43:54.858Z,0
2016-08-23T01:45:07.855Z,0
2016-08-23T01:46:20.841Z,0
2016-08-23T01:47:33.823Z,0
2016-08-23T01:48:46.807Z,0
2016-08-23T01:49:59.791Z,0
2016-08-23T01:51:12.767Z,0
2016-08-23T01:52:25.754Z,0
2016-08-23T01:53:38.729Z,0
2016-08-23T01:54:51.708Z,0
2016-08-23T01:56:04.693Z,0
2016-08-23T01:57:17.676Z,0
2016-08-23T01:58:30.662Z,0
2016-08-23T01:59:43.844Z,0
2016-08-23T02:00:56.822Z,0
2016-08-23T02:02:09.808Z,0
2016-08-23T02:03:22.788Z,0
2016-08-23T02:04:35.763Z,0
2016-08-23T02:05:48.746Z,0
2016-08-23T02:07:01.723Z,0
2016-08-23T02:08:14.903Z,0
2016-08-23T02:09:27.883Z,0
2016-08-23T02:10:40.856Z,0
2016-08-23T02:11:53.839Z,0
2016-08-23T02:13:07.022Z,0
2016-08-23T02:14:20.005Z,0
2016-08-23T02:15:33.053Z,0
2016-08-23T02:16:46.026Z,0
2016-08-23T02:17:59.005Z,0
2016-08-23T02:19:11.980Z,0
2016-08-23T02:20:24.998Z,0
2016-08-23T02:21:37.977Z,0
2016-08-23T02:22:50.961Z,0
2016-08-23T02:24:03.943Z,0
2016-08-23T02:25:16.917Z,0
2016-08-23T02:26:29.896Z,0
2016-08-23T02:27:43.078Z,0
2016-08-23T02:28:56.264Z,0
2016-08-23T02:30:09.446Z,0
2016-08-23T02:31:22.636Z,0
2016-08-23T02:32:35.628Z,0
2016-08-23T02:33:48.599Z,0
2016-08-23T02:35:01.581Z,0
2016-08-23T02:36:14.570Z,0
2016-08-23T02:37:27.779Z,0
2016-08-23T02:38:40.768Z,0
2016-08-23T02:39:53.749Z,0
2016-08-23T02:41:06.730Z,0
2016-08-23T02:42:19.717Z,0
2016-08-23T02:43:32.904Z,0
2016-08-23T02:44:45.883Z,0
2016-08-23T02:45:58.856Z,0
2016-08-23T02:47:11.835Z,0
2016-08-23T02:48:24.817Z,0
2016-08-23T02:49:37.802Z,0
2016-08-23T02:50:50.792Z,0
2016-08-23T02:52:03.769Z,0
2016-08-23T02:53:16.748Z,0
2016-08-23T02:54:29.732Z,0
2016-08-23T02:55:42.914Z,0
2016-08-23T02:56:55.892Z,0
2016-08-23T02:58:08.863Z,0
2016-08-23T02:59:21.840Z,0
2016-08-23T03:00:35.024Z,0
2016-08-23T03:01:48.000Z,0
2016-08-23T03:03:01.180Z,0
2016-08-23T03:04:14.359Z,0
2016-08-23T03:05:27.340Z,0
2016-08-23T03:06:40.329Z,0
2016-08-23T03:07:53.320Z,0
2016-08-23T03:09:06.510Z,0
2016-08-23T03:10:19.489Z,0
2016-08-23T03:11:32.475Z,0
2016-08-23T03:12:45.474Z,0
2016-08-23T03:13:58.469Z,0
2016-08-23T03:15:11.650Z,0
2016-08-23T03:16:24.890Z,0
2016-08-23T03:17:37.863Z,0
2016-08-23T03:18:50.841Z,0
2016-08-23T03:20:03.824Z,0
2016-08-23T03:21:16.803Z,0
2016-08-23T03:22:29.820Z,0
2016-08-23T03:23:42.803Z,0
2016-08-23T03:24:55.977Z,0
2016-08-23T03:26:09.158Z,0
2016-08-23T03:27:22.335Z,0
2016-08-23T03:28:35.317Z,0
2016-08-23T03:29:48.293Z,0
2016-08-23T03:31:01.477Z,0
2016-08-23T03:32:14.453Z,0
2016-08-23T03:33:27.435Z,0
2016-08-23T03:34:40.413Z,0
2016-08-23T03:35:53.593Z,0
2016-08-23T03:37:06.574Z,0
2016-08-23T03:38:19.555Z,0
2016-08-23T03:39:32.518Z,0
2016-08-23T03:40:45.509Z,0
2016-08-23T03:41:58.504Z,0
2016-08-23T03:43:11.694Z,0
2016-08-23T03:44:24.875Z,0
2016-08-23T03:45:37.850Z,0
2016-08-23T03:46:50.825Z,0
2016-08-23T03:48:03.811Z,0
2016-08-23T03:49:16.993Z,0
2016-08-23T03:50:29.969Z,0
2016-08-23T03:51:43.151Z,0
2016-08-23T03:52:56.333Z,0
2016-08-23T03:54:09.321Z,0
2016-08-23T03:55:22.292Z,0
2016-08-23T03:56:35.271Z,0
2016-08-23T03:57:48.250Z,0
2016-08-23T03:59:01.218Z,0
2016-08-23T04:00:14.392Z,0
2016-08-23T04:01:27.406Z,0
2016-08-23T04:02:40.386Z,0
2016-08-23T04:03:53.381Z,0
2016-08-23T04:05:06.365Z,0
2016-08-23T04:06:19.334Z,0
2016-08-23T04:07:32.312Z,0
2016-08-23T04:08:45.299Z,0
2016-08-23T04:09:58.278Z,0
2016-08-23T04:11:11.457Z,0
2016-08-23T04:12:24.437Z,0
2016-08-23T04:13:37.413Z,0
2016-08-23T04:14:50.394Z,0
2016-08-23T04:16:03.375Z,0
2016-08-23T04:17:16.405Z,0
2016-08-23T04:18:29.388Z,0
2016-08-23T04:19:42.371Z,0
2016-08-23T04:20:55.353Z,5
2016-08-23T04:22:08.339Z,5
2016-08-23T04:23:21.526Z,5
2016-08-23T04:24:34.513Z,5
2016-08-23T04:25:47.492Z,5
2016-08-23T04:27:00.473Z,5
2016-08-23T04:28:13.450Z,5
2016-08-23T04:29:26.631Z,10
2016-08-23T04:30:39.825Z,10
2016-08-23T04:31:52.813Z,10
2016-08-23T04:33:05.790Z,10
2016-08-23T04:34:18.769Z,10
2016-08-23T04:35:31.751Z,10
2016-08-23T04:36:44.735Z,15
2016-08-23T04:37:57.719Z,15
2016-08-23T04:39:10.696Z,15
2016-08-23T04:40:23.698Z,15
2016-08-23T04:41:36.670Z,15
2016-08-23T04:42:49.642Z,20
2016-08-23T04:44:02.623Z,20
2016-08-23T04:45:15.603Z,20
2016-08-23T04:46:28.606Z,20
2016-08-23T04:47:41.586Z,25
2016-08-23T04:48:54.564Z,25
2016-08-23T04:50:07.561Z,25
2016-08-23T04:51:20.542Z,30
2016-08-23T04:52:33.529Z,30
2016-08-23T04:53:46.712Z,30
2016-08-23T04:54:59.690Z,35
2016-08-23T04:56:12.675Z,35
2016-08-23T04:57:25.656Z,40
2016-08-23T04:58:38.632Z,40
2016-08-23T04:59:51.820Z,45
2016-08-23T05:01:04.821Z,50
2016-08-23T05:02:17.810Z,50
2016-08-23T05:03:30.790Z,50
2016-08-23T05:04:43.785Z,55
2016-08-23T05:05:56.774Z,70
2016-08-23T05:07:09.758Z,60
2016-08-23T05:08:22.943Z,60
2016-08-23T05:09:35.911Z,60
2016-08-23T05:10:49.098Z,70
2016-08-23T05:12:02.081Z,80
2016-08-23T05:13:15.467Z,80
2016-08-23T05:14:28.451Z,80
2016-08-23T05:15:41.457Z,85
2016-08-23T05:16:54.435Z,90
2016-08-23T05:18:07.462Z,90
2016-08-23T05:19:20.645Z,95
2016-08-23T05:20:33.654Z,100
2016-08-23T05:21:46.639Z,100
2016-08-23T05:22:59.615Z,105
2016-08-23T05:24:12.596Z,105
2016-08-23T05:25:25.576Z,115
2016-08-23T05:26:38.560Z,120
2016-08-23T05:27:51.544Z,95
2016-08-23T05:29:04.532Z,90
2016-08-23T05:30:17.510Z,90
2016-08-23T05:31:30.491Z,95
2016-08-23T05:32:43.464Z,95
2016-08-23T05:33:56.651Z,100
2016-08-23T05:35:09.631Z,105
2016-08-23T05:36:22.646Z,110
2016-08-23T05:37:35.631Z,110
2016-08-23T05:38:48.811Z,110
2016-08-23T05:40:01.786Z,110
2016-08-23T05:41:14.787Z,110
2016-08-23T05:42:27.814Z,115
2016-08-23T05:43:41.001Z,120
2016-08-23T05:44:54.184Z,130
2016-08-23T05:46:07.562Z,125
2016-08-23T05:47:20.739Z,125
2016-08-23T05:48:33.728Z,125
2016-08-23T05:49:46.701Z,125
2016-08-23T05:50:59.886Z,125
2016-08-23T05:52:12.872Z,125
2016-08-23T05:53:25.856Z,125
2016-08-23T05:54:38.842Z,125
2016-08-23T05:55:51.818Z,125
2016-08-23T05:57:04.812Z,125
2016-08-23T05:58:17.793Z,125
2016-08-23T05:59:30.775Z,125
2016-08-23T06:00:43.760Z,125
2016-08-23T06:01:56.737Z,125
2016-08-23T06:03:09.918Z,125
2016-08-23T06:04:22.900Z,125
2016-08-23T06:05:35.897Z,130
2016-08-23T06:06:48.874Z,130
2016-08-23T06:08:02.067Z,135
2016-08-23T06:09:15.061Z,135
2016-08-23T06:10:28.289Z,135
2016-08-23T06:11:41.267Z,140
2016-08-23T06:12:54.244Z,150
2016-08-23T06:14:07.229Z,155
2016-08-23T06:15:20.207Z,150
2016-08-23T06:16:33.187Z,145
2016-08-23T06:17:46.168Z,150
2016-08-23T06:18:59.202Z,150
2016-08-23T06:20:12.193Z,160
2016-08-23T06:21:25.183Z,165
2016-08-23T06:22:38.381Z,165
2016-08-23T06:23:51.362Z,175
2016-08-23T06:25:04.361Z,190
2016-08-23T06:26:17.364Z,200
2016-08-23T06:27:30.354Z,205
2016-08-23T06:28:43.348Z,210
2016-08-23T06:29:56.333Z,210
2016-08-23T06:31:09.322Z,210
2016-08-23T06:32:22.305Z,245
2016-08-23T06:33:35.292Z,220
2016-08-23T06:34:48.275Z,255
2016-08-23T06:36:01.283Z,300
2016-08-23T06:37:14.282Z,380
2016-08-23T06:38:27.263Z,615
2016-08-23T06:39:40.243Z,1025
2016-08-23T06:40:53.231Z,1340
2016-08-23T06:42:06.410Z,1585
2016-08-23T06:43:19.401Z,1505
2016-08-23T06:44:32.387Z,1520
2016-08-23T06:45:45.379Z,1585
2016-08-23T06:46:58.360Z,1510
2016-08-23T06:48:11.344Z,1570
2016-08-23T06:49:24.330Z,1570
2016-08-23T06:50:37.316Z,1555
2016-08-23T06:51:50.304Z,1560
2016-08-23T06:53:03.295Z,1585
2016-08-23T06:54:16.289Z,1640
2016-08-23T06:55:29.873Z,1675
2016-08-23T06:56:43.397Z,1725
2016-08-23T06:57:57.198Z,1690
2016-08-23T06:59:10.233Z,1705
2016-08-23T07:00:23.722Z,1680
2016-08-23T07:01:42.442Z,1675
2016-08-23T07:02:55.466Z,1700
2016-08-23T07:04:09.222Z,1780
2016-08-23T07:05:22.287Z,1720
2016-08-23T07:06:35.304Z,1805
2016-08-23T07:07:48.541Z,1830
2016-08-23T07:09:01.541Z,1715
2016-08-23T07:10:14.542Z,1760
2016-08-23T07:11:27.535Z,1755
2016-08-23T07:12:40.538Z,1700
2016-08-23T07:13:53.532Z,1645
2016-08-23T07:15:07.011Z,1710
2016-08-23T07:16:22.209Z,1740
2016-08-23T07:17:35.213Z,1310
2016-08-23T07:18:48.278Z,1350
2016-08-23T07:20:01.289Z,1185
2016-08-23T07:21:14.564Z,1295
2016-08-23T07:22:27.549Z,2105
2016-08-23T07:23:40.552Z,1700
2016-08-23T07:24:53.749Z,1895
2016-08-23T07:26:06.777Z,1905
2016-08-23T07:27:19.793Z,2015
2016-08-23T07:28:32.991Z,2020
2016-08-23T07:29:45.999Z,2075
2016-08-23T07:30:59.332Z,1890
2016-08-23T07:32:12.375Z,1890
2016-08-23T07:33:25.402Z,1910
2016-08-23T07:34:38.408Z,1865
2016-08-23T07:35:51.598Z,2065
2016-08-23T07:37:04.598Z,2085
2016-08-23T07:38:17.610Z,2125
2016-08-23T07:39:30.629Z,2055
2016-08-23T07:40:43.633Z,2050
2016-08-23T07:41:56.838Z,1945
2016-08-23T07:43:09.838Z,1900
2016-08-23T07:44:22.835Z,1940
2016-08-23T07:45:36.073Z,1825
2016-08-23T07:46:49.085Z,1450
2016-08-23T07:48:02.088Z,1805
2016-08-23T07:49:15.096Z,1870
2016-08-23T07:50:28.303Z,1825
2016-08-23T07:51:41.316Z,1960
2016-08-23T07:52:54.316Z,1915
2016-08-23T07:54:07.323Z,1980
2016-08-23T07:55:20.368Z,1915
2016-08-23T07:56:33.373Z,1905
2016-08-23T07:57:46.378Z,2010
2016-08-23T07:58:59.388Z,2010
2016-08-23T08:00:12.405Z,2005
2016-08-23T08:01:25.416Z,1975
2016-08-23T08:02:38.412Z,1820
2016-08-23T08:03:51.495Z,1960
2016-08-23T08:05:04.703Z,2050
2016-08-23T08:06:17.708Z,2120
2016-08-23T08:07:30.712Z,1980
2016-08-23T08:08:43.725Z,2140
2016-08-23T08:09:56.726Z,2175
2016-08-23T08:11:09.760Z,2310
2016-08-23T08:12:22.764Z,2300
2016-08-23T08:13:35.771Z,2335
2016-08-23T08:14:48.772Z,2420
2016-08-23T08:16:01.810Z,1775
2016-08-23T08:17:14.822Z,1325
2016-08-23T08:18:27.831Z,820
2016-08-23T08:19:41.089Z,1105
2016-08-23T08:20:54.092Z,810
2016-08-23T08:22:07.110Z,925
2016-08-23T08:23:20.121Z,980
2016-08-23T08:24:33.141Z,1750
2016-08-23T08:25:46.156Z,1430
2016-08-23T08:26:59.363Z,1475
2016-08-23T08:28:12.361Z,2025
2016-08-23T08:29:25.374Z,2325
2016-08-23T08:30:38.380Z,2050
2016-08-23T08:31:51.382Z,2020
2016-08-23T08:33:04.384Z,1985
2016-08-23T08:34:17.380Z,2010
2016-08-23T08:35:30.400Z,1935
2016-08-23T08:36:43.399Z,2140
2016-08-23T08:37:56.407Z,2210
2016-08-23T08:39:09.429Z,2070
2016-08-23T08:40:22.433Z,2030
2016-08-23T08:41:35.437Z,2140
2016-08-23T08:42:48.442Z,2130
2016-08-23T08:44:01.447Z,2040
2016-08-23T08:45:14.652Z,2270
2016-08-23T08:46:27.857Z,2075
2016-08-23T08:47:41.060Z,2070
2016-08-23T08:48:54.072Z,2185
2016-08-23T08:50:07.078Z,2240
2016-08-23T08:51:20.286Z,2145
2016-08-23T08:52:33.295Z,2215
2016-08-23T08:53:46.312Z,2290
2016-08-23T08:54:59.322Z,2315
2016-08-23T08:56:12.332Z,2250
2016-08-23T08:57:25.334Z,2100
2016-08-23T08:58:38.357Z,1980
2016-08-23T08:59:51.355Z,1985
2016-08-23T09:01:04.382Z,2000
2016-08-23T09:02:17.396Z,1990
2016-08-23T09:03:30.400Z,2140
2016-08-23T09:04:43.415Z,1900
2016-08-23T09:05:56.466Z,1700
2016-08-23T09:07:09.475Z,2085
2016-08-23T09:08:22.486Z,2180
2016-08-23T09:09:35.492Z,2240
2016-08-23T09:10:48.495Z,2105
2016-08-23T09:12:01.511Z,2060
2016-08-23T09:13:14.520Z,2100
2016-08-23T09:14:27.725Z,2075
2016-08-23T09:15:40.730Z,2050
2016-08-23T09:16:53.738Z,2075
2016-08-23T09:18:06.756Z,2070
2016-08-23T09:19:19.767Z,2195
2016-08-23T09:20:33.031Z,2095
2016-08-23T09:21:46.044Z,2120
2016-08-23T09:22:59.058Z,2140
2016-08-23T09:24:12.073Z,2115
2016-08-23T09:25:25.077Z,2190
2016-08-23T09:26:38.280Z,2055
2016-08-23T09:27:51.283Z,1805
2016-08-23T09:29:04.295Z,1790
2016-08-23T09:30:17.305Z,1865
2016-08-23T09:31:30.313Z,2035
2016-08-23T09:32:43.519Z,1885
2016-08-23T09:33:56.537Z,2005
2016-08-23T09:35:09.961Z,1850
2016-08-23T09:36:22.967Z,2020
2016-08-23T09:37:36.003Z,2020
2016-08-23T09:38:49.010Z,1955
2016-08-23T09:40:02.245Z,1970
2016-08-23T09:41:15.252Z,1965
2016-08-23T09:42:28.275Z,2085
2016-08-23T09:43:41.279Z,2055
2016-08-23T09:44:54.281Z,2055
2016-08-23T09:46:07.296Z,2025
2016-08-23T09:47:20.304Z,2125
2016-08-23T09:48:33.313Z,2145
2016-08-23T09:49:46.332Z,2175
2016-08-23T09:50:59.547Z,2095
2016-08-23T09:52:12.554Z,2080
2016-08-23T09:53:25.558Z,2015
2016-08-23T09:54:39.316Z,1710
2016-08-23T09:55:52.333Z,1940
2016-08-23T09:57:05.338Z,1945
2016-08-23T09:58:18.344Z,1920
2016-08-23T09:59:31.550Z,1820
2016-08-23T10:00:44.759Z,1950
2016-08-23T10:01:57.755Z,1885
2016-08-23T10:03:10.766Z,1845
2016-08-23T10:04:23.773Z,1845
2016-08-23T10:05:36.770Z,1845
2016-08-23T10:06:49.789Z,1870
2016-08-23T10:08:02.996Z,1795
2016-08-23T10:09:16.003Z,1900
2016-08-23T10:10:29.014Z,1945
2016-08-23T10:11:42.225Z,1960
2016-08-23T10:12:55.242Z,1950
2016-08-23T10:14:08.253Z,1870
2016-08-23T10:15:21.460Z,1860
2016-08-23T10:16:34.473Z,1840
2016-08-23T10:17:47.487Z,1780
2016-08-23T10:19:00.509Z,1720
2016-08-23T10:20:13.517Z,1805
2016-08-23T10:21:26.574Z,1775
2016-08-23T10:22:39.590Z,1870
2016-08-23T10:23:52.609Z,1835
2016-08-23T10:25:06.261Z,1785
2016-08-23T10:26:20.599Z,1905
2016-08-23T10:27:34.065Z,1800
2016-08-23T10:28:47.272Z,1735
2016-08-23T10:30:00.275Z,1830
2016-08-23T10:31:13.284Z,1860
2016-08-23T10:32:26.295Z,1780
2016-08-23T10:33:39.307Z,1795
2016-08-23T10:34:52.542Z,1800
2016-08-23T10:36:05.546Z,1800
2016-08-23T10:37:18.548Z,1705
2016-08-23T10:38:31.550Z,1690
2016-08-23T10:39:44.552Z,1785
2016-08-23T10:40:57.565Z,1900
2016-08-23T10:42:10.565Z,2105
2016-08-23T10:43:23.570Z,2240
2016-08-23T10:44:36.587Z,2375
2016-08-23T10:45:49.607Z,2185
2016-08-23T10:47:02.811Z,1910
2016-08-23T10:48:15.822Z,1245
2016-08-23T10:49:29.029Z,890
2016-08-23T10:50:42.037Z,715
2016-08-23T10:51:55.062Z,680
2016-08-23T10:53:08.065Z,695
2016-08-23T10:54:21.313Z,695
2016-08-23T10:55:34.316Z,725
2016-08-23T10:56:47.521Z,760
2016-08-23T10:58:00.533Z,775
2016-08-23T10:59:13.557Z,815
2016-08-23T11:00:26.573Z,875
2016-08-23T11:01:39.583Z,965
2016-08-23T11:02:52.808Z,1085
2016-08-23T11:04:05.812Z,1160
2016-08-23T11:05:18.830Z,1175
2016-08-23T11:06:31.836Z,1285
2016-08-23T11:07:44.838Z,1390
2016-08-23T11:08:58.056Z,1375
2016-08-23T11:10:11.272Z,1475
2016-08-23T11:11:24.279Z,1370
2016-08-23T11:12:37.291Z,1355
2016-08-23T11:13:50.303Z,1170
2016-08-23T11:15:03.502Z,1275
2016-08-23T11:16:16.518Z,1270
2016-08-23T11:17:29.518Z,1265
2016-08-23T11:18:42.521Z,1260
2016-08-23T11:19:55.520Z,1235
2016-08-23T11:21:08.517Z,1165
2016-08-23T11:22:21.575Z,1280
2016-08-23T11:23:34.581Z,1375
2016-08-23T11:24:47.588Z,1340
2016-08-23T11:26:00.585Z,1265
2016-08-23T11:27:13.584Z,1465
2016-08-23T11:28:26.832Z,1355
2016-08-23T11:29:39.830Z,1330
2016-08-23T11:30:52.828Z,1395
2016-08-23T11:32:06.050Z,1270
2016-08-23T11:33:19.070Z,1185
2016-08-23T11:34:32.077Z,1405
2016-08-23T11:35:45.323Z,1470
2016-08-23T11:36:58.339Z,1405
2016-08-23T11:38:11.337Z,1300
2016-08-23T11:39:24.363Z,1400
2016-08-23T11:40:37.372Z,1415
2016-08-23T11:41:50.384Z,1395
2016-08-23T11:43:03.385Z,1360
2016-08-23T11:44:16.423Z,1320
2016-08-23T11:45:29.424Z,1395
2016-08-23T11:46:42.456Z,1225
2016-08-23T11:47:55.465Z,1335
2016-08-23T11:49:08.472Z,1310
2016-08-23T11:50:21.487Z,1245
2016-08-23T11:51:34.486Z,1195
2016-08-23T11:52:47.517Z,1275
2016-08-23T11:54:00.523Z,1145
2016-08-23T11:55:13.520Z,1260
2016-08-23T11:56:26.527Z,1295
2016-08-23T11:57:39.534Z,1210
2016-08-23T11:58:52.547Z,1160
2016-08-23T12:00:05.578Z,1030
2016-08-23T12:01:18.586Z,1230
2016-08-23T12:02:31.588Z,1245
2016-08-23T12:03:44.792Z,1235
2016-08-23T12:04:57.807Z,1195
2016-08-23T12:06:11.042Z,1170
2016-08-23T12:07:24.053Z,1145
2016-08-23T12:08:37.054Z,1125
2016-08-23T12:09:50.072Z,1185
2016-08-23T12:11:03.073Z,1090
2016-08-23T12:12:16.503Z,1075
2016-08-23T12:13:29.708Z,1175
2016-08-23T12:14:42.732Z,1085
2016-08-23T12:15:55.725Z,1000
2016-08-23T12:17:08.734Z,1020
2016-08-23T12:18:21.740Z,1010
2016-08-23T12:19:34.741Z,1070
2016-08-23T12:20:47.754Z,1015
2016-08-23T12:22:00.960Z,1020
2016-08-23T12:23:14.026Z,990
2016-08-23T12:24:27.038Z,980
2016-08-23T12:25:40.040Z,955
2016-08-23T12:26:53.044Z,945
2016-08-23T12:28:06.051Z,925
2016-08-23T12:29:19.053Z,920
2016-08-23T12:30:32.062Z,905
2016-08-23T12:31:45.070Z,890
2016-08-23T12:32:58.224Z,860
2016-08-23T12:34:11.421Z,845
2016-08-23T12:35:24.418Z,825
2016-08-23T12:36:37.617Z,835
2016-08-23T12:37:50.841Z,815
2016-08-23T12:39:03.843Z,785
2016-08-23T12:40:16.851Z,790
2016-08-23T12:41:29.852Z,770
2016-08-23T12:42:42.850Z,775
2016-08-23T12:43:59.530Z,765
2016-08-23T12:45:14.189Z,760
2016-08-23T12:46:27.291Z,765
2016-08-23T12:47:40.291Z,740
2016-08-23T12:48:53.296Z,720
2016-08-23T12:50:06.290Z,710
2016-08-23T12:51:19.289Z,695
2016-08-23T12:52:32.480Z,670
2016-08-23T12:53:45.497Z,655
2016-08-23T12:54:58.499Z,650
2016-08-23T12:56:11.498Z,630
2016-08-23T12:57:24.683Z,620
2016-08-23T12:58:37.681Z,595
2016-08-23T12:59:50.882Z,590
2016-08-23T13:01:03.885Z,585
2016-08-23T13:02:16.888Z,560
2016-08-23T13:03:29.899Z,550
2016-08-23T13:04:42.901Z,550
2016-08-23T13:05:55.906Z,550
2016-08-23T13:07:08.920Z,535
2016-08-23T13:08:21.915Z,520
2016-08-23T13:09:34.913Z,515
2016-08-23T13:10:47.914Z,510
2016-08-23T13:12:00.926Z,485
2016-08-23T13:13:14.144Z,470
2016-08-23T13:14:27.354Z,450
2016-08-23T13:15:40.367Z,435
2016-08-23T13:16:53.362Z,425
2016-08-23T13:18:06.365Z,360
2016-08-23T13:19:19.367Z,310
2016-08-23T13:20:32.574Z,275
2016-08-23T13:21:45.763Z,290
2016-08-23T13:22:58.772Z,315
2016-08-23T13:24:11.821Z,330
2016-08-23T13:25:24.829Z,325
2016-08-23T13:26:37.826Z,310
2016-08-23T13:27:50.826Z,305
2016-08-23T13:29:03.822Z,315
2016-08-23T13:30:16.822Z,320
2016-08-23T13:31:29.825Z,310
2016-08-23T13:32:42.826Z,295
2016-08-23T13:33:55.818Z,280
2016-08-23T13:35:08.810Z,265
2016-08-23T13:36:21.812Z,265
2016-08-23T13:37:34.817Z,260
2016-08-23T13:38:47.818Z,260
2016-08-23T13:40:00.814Z,255
2016-08-23T13:41:14.010Z,255
2016-08-23T13:42:27.006Z,275
2016-08-23T13:43:40.007Z,310
2016-08-23T13:44:53.024Z,310
2016-08-23T13:46:06.028Z,285
2016-08-23T13:47:19.244Z,270
2016-08-23T13:48:32.285Z,255
2016-08-23T13:49:45.284Z,260
2016-08-23T13:50:58.490Z,255
2016-08-23T13:52:11.707Z,255
2016-08-23T13:53:24.704Z,245
2016-08-23T13:54:37.705Z,235
2016-08-23T13:55:50.722Z,230
2016-08-23T13:57:03.918Z,230
2016-08-23T13:58:16.920Z,235
2016-08-23T13:59:29.913Z,235
2016-08-23T14:00:42.913Z,225
2016-08-23T14:01:55.917Z,225
2016-08-23T14:03:08.923Z,220
2016-08-23T14:04:21.918Z,215
2016-08-23T14:05:34.908Z,215
2016-08-23T14:06:47.907Z,220
2016-08-23T14:08:00.911Z,220
2016-08-23T14:09:13.919Z,220
2016-08-23T14:10:26.909Z,215
2016-08-23T14:11:39.901Z,220
2016-08-23T14:12:52.910Z,215
2016-08-23T14:14:05.906Z,215
2016-08-23T14:15:19.098Z,205
2016-08-23T14:16:32.105Z,195
2016-08-23T14:17:45.098Z,195
2016-08-23T14:18:58.105Z,190
2016-08-23T14:20:11.100Z,190
2016-08-23T14:21:24.106Z,190
2016-08-23T14:22:37.117Z,185
2016-08-23T14:23:50.309Z,185
2016-08-23T14:25:03.358Z,185
2016-08-23T14:26:16.357Z,190
2016-08-23T14:27:29.344Z,195
2016-08-23T14:28:42.337Z,190
2016-08-23T14:29:55.332Z,270
2016-08-23T14:31:08.327Z,370
2016-08-23T14:32:21.342Z,310
2016-08-23T14:33:34.330Z,285
2016-08-23T14:34:47.337Z,300
2016-08-23T14:36:00.338Z,335
2016-08-23T14:37:13.343Z,320
2016-08-23T14:38:26.346Z,270
2016-08-23T14:39:39.347Z,200
2016-08-23T14:40:52.350Z,160
2016-08-23T14:42:05.345Z,155
2016-08-23T14:43:18.359Z,150
2016-08-23T14:44:31.360Z,150
2016-08-23T14:45:44.358Z,145
2016-08-23T14:46:57.362Z,145
2016-08-23T14:48:10.379Z,145
2016-08-23T14:49:23.372Z,145
2016-08-23T14:50:36.380Z,145
2016-08-23T14:51:49.381Z,145
2016-08-23T14:53:02.371Z,145
2016-08-23T14:54:15.582Z,140
2016-08-23T14:55:28.588Z,140
2016-08-23T14:56:41.577Z,140
2016-08-23T14:57:54.570Z,135
2016-08-23T14:59:07.565Z,135
2016-08-23T15:00:20.564Z,135
2016-08-23T15:01:33.759Z,130
2016-08-23T15:02:46.764Z,130
2016-08-23T15:03:59.771Z,130
2016-08-23T15:05:12.773Z,130
2016-08-23T15:06:25.768Z,130
2016-08-23T15:07:38.774Z,130
2016-08-23T15:08:51.770Z,130
2016-08-23T15:10:04.760Z,125
2016-08-23T15:11:17.759Z,125
2016-08-23T15:12:30.961Z,125
2016-08-23T15:13:44.160Z,125
2016-08-23T15:14:57.154Z,120
2016-08-23T15:16:10.151Z,120
2016-08-23T15:17:23.352Z,120
2016-08-23T15:18:36.362Z,120
2016-08-23T15:19:49.363Z,120
2016-08-23T15:21:02.361Z,115
2016-08-23T15:22:15.348Z,115
2016-08-23T15:23:28.345Z,115
2016-08-23T15:24:41.788Z,115
2016-08-23T15:25:54.832Z,115
2016-08-23T15:27:08.038Z,115
2016-08-23T15:28:21.041Z,115
2016-08-23T15:29:34.035Z,115
2016-08-23T15:30:47.032Z,115
2016-08-23T15:32:00.029Z,120
2016-08-23T15:33:13.028Z,115
2016-08-23T15:34:26.209Z,115
2016-08-23T15:35:39.406Z,115
2016-08-23T15:36:52.413Z,115
2016-08-23T15:38:05.407Z,115
2016-08-23T15:39:18.416Z,115
2016-08-23T15:40:31.412Z,115
2016-08-23T15:41:44.611Z,115
2016-08-23T15:42:57.608Z,115
2016-08-23T15:44:10.611Z,115
2016-08-23T15:45:23.811Z,110
2016-08-23T15:46:37.007Z,120
2016-08-23T15:47:50.005Z,110
2016-08-23T15:49:03.216Z,110
2016-08-23T15:50:16.246Z,115
2016-08-23T15:51:29.241Z,110
2016-08-23T15:52:42.231Z,110
2016-08-23T15:53:55.431Z,110
2016-08-23T15:55:08.433Z,110
2016-08-23T15:56:21.425Z,110
2016-08-23T15:57:34.436Z,110
2016-08-23T15:58:47.436Z,110
2016-08-23T16:00:00.445Z,110
2016-08-23T16:01:13.439Z,110
2016-08-23T16:02:26.426Z,105
2016-08-23T16:03:39.420Z,105
2016-08-23T16:04:52.424Z,105
2016-08-23T16:06:05.438Z,105
2016-08-23T16:07:18.433Z,105
2016-08-23T16:08:31.423Z,105
2016-08-23T16:09:44.414Z,105
2016-08-23T16:10:57.407Z,105
2016-08-23T16:12:10.398Z,105
2016-08-23T16:13:23.394Z,105
2016-08-23T16:14:36.396Z,105
2016-08-23T16:15:49.639Z,105
2016-08-23T16:17:02.629Z,105
2016-08-23T16:18:15.623Z,105
2016-08-23T16:19:28.829Z,105
2016-08-23T16:20:42.023Z,105
2016-08-23T16:21:55.016Z,105
2016-08-23T16:23:08.212Z,105
2016-08-23T16:24:21.210Z,105
2016-08-23T16:25:34.203Z,100
2016-08-23T16:26:47.468Z,100
2016-08-23T16:28:00.465Z,100
2016-08-23T16:29:13.453Z,100
2016-08-23T16:30:26.445Z,100
2016-08-23T16:31:39.442Z,100
2016-08-23T16:32:52.432Z,100
2016-08-23T16:34:05.427Z,100
2016-08-23T16:35:18.437Z,100
2016-08-23T16:36:31.452Z,100
2016-08-23T16:37:44.651Z,100
2016-08-23T16:38:57.639Z,95
2016-08-23T16:40:10.634Z,100
2016-08-23T16:41:23.631Z,90
2016-08-23T16:42:36.631Z,90
2016-08-23T16:43:49.635Z,90
2016-08-23T16:45:02.634Z,90
2016-08-23T16:46:15.628Z,85
2016-08-23T16:47:28.824Z,85
2016-08-23T16:48:41.808Z,85
2016-08-23T16:49:54.793Z,80
2016-08-23T16:51:07.789Z,80
2016-08-23T16:52:20.794Z,80
2016-08-23T16:53:33.786Z,80
2016-08-23T16:54:46.782Z,80
2016-08-23T16:55:59.974Z,75